Time;durP1;ratioP1;P1;durP2;ratioP2;P2;SDS_P1;SDS_P2;PMS_P1;PMS_P2;Temp;Humidity;BMP_temperature;BMP_pressure;BME280_temperature;BME280_humidity;BME280_pressure;Samples;Min_cycle;Max_cycle;Signal;HPM_P1;HPM_P2
2021/11/15 00:00:32;;;;;;;14.80;12.53;;;9.70;99.90;;;;;;4973288;28;20204;-70
2021/11/15 00:02:59;;;;;;;16.30;12.30;;;9.80;99.90;;;;;;4973207;28;20412;-70
2021/11/15 00:05:25;;;;;;;15.70;12.10;;;9.80;99.90;;;;;;4973004;28;20486;-70
2021/11/15 00:07:50;;;;;;;16.10;11.87;;;9.90;99.90;;;;;;4973656;28;20428;-70
2021/11/15 00:10:16;;;;;;;14.33;12.83;;;9.90;99.90;;;;;;4973063;28;20689;-71
2021/11/15 00:12:44;;;;;;;14.57;12.20;;;9.90;99.90;;;;;;4973212;28;20188;-70
2021/11/15 00:15:10;;;;;;;16.13;13.30;;;9.90;99.90;;;;;;4972832;28;20462;-70
2021/11/15 00:17:37;;;;;;;16.63;12.33;;;10.00;99.90;;;;;;4972708;28;20940;-71
2021/11/15 00:20:04;;;;;;;13.77;11.90;;;9.90;99.90;;;;;;4972881;28;20849;-70
2021/11/15 00:22:30;;;;;;;14.93;13.27;;;10.00;99.90;;;;;;4972896;28;20416;-71
2021/11/15 00:24:55;;;;;;;15.67;13.30;;;10.00;99.90;;;;;;4973737;28;20497;-70
2021/11/15 00:27:21;;;;;;;17.07;14.43;;;9.80;99.90;;;;;;4973049;28;20235;-70
2021/11/15 00:29:46;;;;;;;19.27;14.03;;;9.80;99.90;;;;;;4973025;28;20552;-70
2021/11/15 00:32:12;;;;;;;20.20;15.27;;;9.80;99.90;;;;;;4972880;28;20173;-71
2021/11/15 00:34:37;;;;;;;17.07;13.07;;;9.80;99.90;;;;;;4972705;28;20475;-71
2021/11/15 00:37:03;;;;;;;17.00;13.43;;;9.70;99.90;;;;;;4972670;28;20271;-71
2021/11/15 00:39:29;;;;;;;15.37;13.50;;;9.60;99.90;;;;;;4972368;28;20291;-71
2021/11/15 00:41:54;;;;;;;20.20;13.80;;;9.60;99.90;;;;;;4973907;28;20185;-71
2021/11/15 00:44:20;;;;;;;19.47;13.70;;;9.60;99.90;;;;;;4972758;28;20603;-70
2021/11/15 00:46:45;;;;;;;16.93;13.67;;;9.60;99.90;;;;;;4972348;28;20660;-70
2021/11/15 00:49:11;;;;;;;20.57;13.57;;;9.60;99.90;;;;;;4972730;28;20215;-71
2021/11/15 00:51:36;;;;;;;16.20;13.20;;;9.50;99.90;;;;;;4972817;28;20263;-71
2021/11/15 00:54:02;;;;;;;17.90;13.67;;;9.50;99.90;;;;;;4972626;28;20185;-71
2021/11/15 00:56:28;;;;;;;17.70;13.77;;;9.50;99.90;;;;;;4975303;28;20180;-70
2021/11/15 00:58:54;;;;;;;18.80;14.70;;;9.60;99.90;;;;;;4994662;28;20215;-70
2021/11/15 01:01:20;;;;;;;17.10;13.07;;;9.70;99.90;;;;;;4997369;28;20171;-71
2021/11/15 01:03:46;;;;;;;15.40;12.40;;;9.70;99.90;;;;;;4998008;28;20417;-71
2021/11/15 01:06:12;;;;;;;15.73;12.40;;;9.70;99.90;;;;;;4996307;28;20407;-70
2021/11/15 01:08:38;;;;;;;19.00;12.20;;;9.70;99.90;;;;;;4995985;28;20424;-71
2021/11/15 01:11:05;;;;;;;15.67;11.73;;;9.70;99.90;;;;;;4996182;28;20447;-70
2021/11/15 01:13:31;;;;;;;17.33;12.87;;;9.60;99.90;;;;;;4995896;28;20934;-70
2021/11/15 01:15:57;;;;;;;13.87;11.50;;;9.60;99.90;;;;;;4992550;28;20426;-70
2021/11/15 01:18:22;;;;;;;18.67;13.03;;;9.70;99.90;;;;;;4995883;28;20463;-70
2021/11/15 01:20:48;;;;;;;19.07;12.97;;;9.60;99.90;;;;;;4995731;28;20183;-71
2021/11/15 01:23:14;;;;;;;15.43;12.40;;;9.60;99.90;;;;;;4995743;28;20532;-70
2021/11/15 01:25:40;;;;;;;17.00;12.60;;;9.50;99.90;;;;;;4993962;28;20222;-70
2021/11/15 01:28:07;;;;;;;16.30;12.50;;;9.40;99.90;;;;;;4995563;28;20451;-70
2021/11/15 01:30:34;;;;;;;16.80;13.50;;;9.40;99.90;;;;;;4989721;28;20467;-71
2021/11/15 01:33:00;;;;;;;18.53;13.50;;;9.50;99.90;;;;;;4994881;28;20200;-70
2021/11/15 01:35:26;;;;;;;13.90;10.97;;;9.50;99.90;;;;;;4995032;28;20454;-71
2021/11/15 01:37:54;;;;;;;16.60;12.23;;;9.40;99.90;;;;;;4994660;28;20466;-71
2021/11/15 01:40:27;;;;;;;15.83;11.70;;;9.50;99.90;;;;;;4995140;28;20462;-70
2021/11/15 01:42:54;;;;;;;19.40;12.90;;;9.50;99.90;;;;;;4995448;28;20908;-71
2021/11/15 01:45:25;;;;;;;19.80;13.53;;;9.50;99.90;;;;;;4995084;28;20423;-70
2021/11/15 01:47:56;;;;;;;15.63;12.10;;;9.40;99.90;;;;;;4995238;28;20421;-70
2021/11/15 01:50:23;;;;;;;18.37;13.03;;;9.40;99.90;;;;;;4981181;28;20519;-71
2021/11/15 01:52:49;;;;;;;14.57;11.97;;;9.40;99.90;;;;;;4976147;28;20420;-71
2021/11/15 01:55:17;;;;;;;17.37;12.60;;;9.30;99.90;;;;;;4975858;28;20545;-70
2021/11/15 01:57:43;;;;;;;17.77;12.53;;;9.40;99.90;;;;;;4976698;28;20420;-72
2021/11/15 02:00:12;;;;;;;17.97;14.17;;;9.40;99.90;;;;;;4976495;28;20455;-72
2021/11/15 02:02:39;;;;;;;16.03;11.77;;;9.40;99.90;;;;;;4976294;28;20821;-72
2021/11/15 02:05:05;;;;;;;17.40;11.60;;;9.50;99.90;;;;;;4976328;28;20477;-71
2021/11/15 02:07:31;;;;;;;16.23;12.27;;;9.50;99.90;;;;;;4987841;28;20461;-72
2021/11/15 02:09:57;;;;;;;19.77;12.40;;;9.40;99.90;;;;;;4996285;28;20434;-72
2021/11/15 02:12:25;;;;;;;15.33;11.63;;;9.40;99.90;;;;;;4994888;28;20187;-72
2021/11/15 02:14:50;;;;;;;15.40;11.63;;;9.40;99.90;;;;;;4997205;28;20259;-72
2021/11/15 02:17:16;;;;;;;18.27;12.17;;;9.50;99.90;;;;;;4995235;28;20946;-72
2021/11/15 02:19:43;;;;;;;17.00;12.70;;;9.50;99.90;;;;;;4996798;28;20703;-71
2021/11/15 02:22:08;;;;;;;16.07;12.67;;;9.50;99.90;;;;;;4999577;28;21035;-72
2021/11/15 02:24:34;;;;;;;15.83;11.73;;;9.50;99.90;;;;;;4993703;28;20431;-72
2021/11/15 02:26:59;;;;;;;17.27;12.20;;;9.50;99.90;;;;;;4983669;28;20177;-72
2021/11/15 02:29:25;;;;;;;18.23;12.20;;;9.40;99.90;;;;;;4983387;28;20203;-72
2021/11/15 02:31:51;;;;;;;18.13;13.33;;;9.30;99.90;;;;;;4979993;28;20180;-72
2021/11/15 02:34:16;;;;;;;16.90;12.50;;;9.20;99.90;;;;;;4975185;28;20207;-73
2021/11/15 02:36:42;;;;;;;20.80;13.53;;;9.20;99.90;;;;;;4975374;28;20195;-72
2021/11/15 02:39:08;;;;;;;17.50;12.03;;;9.20;99.90;;;;;;4974612;28;20227;-73
2021/11/15 02:41:33;;;;;;;16.70;12.63;;;9.20;99.90;;;;;;4976093;28;20212;-72
2021/11/15 02:44:02;;;;;;;16.30;12.27;;;9.30;99.90;;;;;;4974684;28;20439;-72
2021/11/15 02:46:28;;;;;;;15.40;11.60;;;9.30;99.90;;;;;;4974696;28;20192;-73
2021/11/15 02:48:55;;;;;;;22.37;13.17;;;9.40;99.90;;;;;;4974822;28;20458;-73
2021/11/15 02:51:21;;;;;;;15.97;11.43;;;9.30;99.90;;;;;;4974734;28;20451;-72
2021/11/15 02:53:47;;;;;;;15.37;12.10;;;9.40;99.90;;;;;;4974922;28;20412;-73
2021/11/15 02:56:13;;;;;;;16.63;11.93;;;9.50;99.90;;;;;;4973270;28;20432;-72
2021/11/15 02:58:39;;;;;;;15.57;11.60;;;9.50;99.90;;;;;;4992778;28;20537;-73
2021/11/15 03:01:08;;;;;;;18.90;12.73;;;9.30;99.90;;;;;;4993616;28;20260;-72
2021/11/15 03:03:34;;;;;;;20.63;12.53;;;9.20;99.90;;;;;;4994195;28;20501;-72
2021/11/15 03:06:00;;;;;;;17.03;13.60;;;9.00;99.90;;;;;;4993621;28;20872;-73
2021/11/15 03:08:26;;;;;;;18.40;13.60;;;9.00;99.90;;;;;;4994018;28;20286;-73
2021/11/15 03:11:00;;;;;;;17.07;12.10;;;9.00;99.90;;;;;;4993771;28;20603;-73
2021/11/15 03:13:29;;;;;;;18.50;12.33;;;9.10;99.90;;;;;;4993709;28;20891;-72
2021/11/15 03:15:55;;;;;;;17.43;12.10;;;9.10;99.90;;;;;;4976785;28;20440;-72
2021/11/15 03:18:26;;;;;;;19.67;13.87;;;9.10;99.90;;;;;;4973333;28;21037;-72
2021/11/15 03:20:59;;;;;;;17.40;13.17;;;9.00;99.90;;;;;;4973982;28;20785;-72
2021/11/15 03:23:28;;;;;;;18.27;13.60;;;9.00;99.90;;;;;;4973552;28;20423;-73
2021/11/15 03:25:55;;;;;;;17.50;12.63;;;9.00;99.90;;;;;;4973479;28;20796;-72
2021/11/15 03:28:24;;;;;;;17.30;12.40;;;9.10;99.90;;;;;;4973768;28;20437;-72
2021/11/15 03:30:59;;;;;;;19.20;14.53;;;9.20;99.90;;;;;;4980398;28;20428;-72
2021/11/15 03:33:26;;;;;;;18.47;13.83;;;9.20;99.90;;;;;;4993763;28;20431;-72
2021/11/15 03:35:52;;;;;;;18.37;13.90;;;9.30;99.90;;;;;;4993721;28;20500;-72
2021/11/15 03:38:17;;;;;;;18.00;11.90;;;9.40;99.90;;;;;;4998860;28;20512;-72
2021/11/15 03:40:43;;;;;;;19.87;12.40;;;9.40;99.90;;;;;;4995241;28;20254;-72
2021/11/15 03:43:09;;;;;;;16.17;12.70;;;9.50;99.90;;;;;;4992865;28;20182;-71
2021/11/15 03:45:36;;;;;;;18.20;12.40;;;9.50;99.90;;;;;;4992762;28;20416;-72
2021/11/15 03:48:04;;;;;;;18.27;12.60;;;9.50;99.90;;;;;;4993003;28;20226;-71
2021/11/15 03:50:29;;;;;;;18.60;13.07;;;9.50;99.90;;;;;;4974132;28;21109;-72
2021/11/15 03:52:57;;;;;;;17.30;12.30;;;9.50;99.90;;;;;;4973523;28;20431;-72
2021/11/15 03:55:23;;;;;;;18.40;12.20;;;9.30;99.90;;;;;;4972566;28;20564;-72
2021/11/15 03:57:49;;;;;;;17.67;12.13;;;9.40;99.90;;;;;;4973190;28;20478;-72
2021/11/15 04:00:22;;;;;;;20.07;13.83;;;9.40;99.90;;;;;;4973378;28;20489;-72
2021/11/15 04:02:53;;;;;;;17.30;12.20;;;9.40;99.90;;;;;;4973273;28;20418;-72
2021/11/15 04:05:27;;;;;;;17.70;12.93;;;9.40;99.90;;;;;;4971581;28;20408;-72
2021/11/15 04:07:54;;;;;;;16.10;12.60;;;9.30;99.90;;;;;;4974212;28;20430;-72
2021/11/15 04:10:33;;;;;;;17.20;12.10;;;9.30;99.90;;;;;;4972808;28;20467;-72
2021/11/15 04:13:05;;;;;;;16.93;13.17;;;9.20;99.90;;;;;;4973043;28;20465;-72
2021/11/15 04:15:31;;;;;;;20.63;14.20;;;9.10;99.90;;;;;;4972930;28;20420;-72
2021/11/15 04:17:58;;;;;;;21.97;13.60;;;9.10;99.90;;;;;;4973850;28;20829;-72
2021/11/15 04:20:24;;;;;;;17.13;12.13;;;9.20;99.90;;;;;;4972662;28;20190;-72
2021/11/15 04:22:50;;;;;;;19.17;13.47;;;9.10;99.90;;;;;;4973017;28;20788;-72
2021/11/15 04:25:16;;;;;;;18.40;12.90;;;9.20;99.90;;;;;;4972685;28;20415;-72
2021/11/15 04:27:42;;;;;;;17.43;12.60;;;9.30;99.90;;;;;;4986317;28;20526;-71
2021/11/15 04:30:12;;;;;;;16.70;12.60;;;9.30;99.90;;;;;;4991697;28;20887;-72
2021/11/15 04:32:38;;;;;;;17.83;11.90;;;9.40;99.90;;;;;;4990581;28;20242;-72
2021/11/15 04:35:06;;;;;;;17.03;11.47;;;9.40;99.90;;;;;;4992011;28;20422;-72
2021/11/15 04:37:31;;;;;;;18.03;12.60;;;9.50;99.90;;;;;;4992174;28;20941;-72
2021/11/15 04:39:57;;;;;;;15.37;11.17;;;9.50;99.90;;;;;;5018796;23;20520;-70
2021/11/15 04:42:24;;;;;;;15.83;11.80;;;9.50;99.90;;;;;;5029386;28;20649;-71
2021/11/15 04:44:49;;;;;;;15.03;11.43;;;9.50;99.90;;;;;;5033981;28;20397;-69
2021/11/15 04:47:15;;;;;;;19.53;13.30;;;9.50;99.90;;;;;;5032632;28;20480;-70
2021/11/15 04:49:41;;;;;;;18.47;12.97;;;9.50;99.90;;;;;;5027818;28;20202;-70
2021/11/15 04:52:07;;;;;;;14.80;10.80;;;9.50;99.90;;;;;;5009288;28;20566;-70
2021/11/15 04:54:33;;;;;;;17.67;12.80;;;9.50;99.90;;;;;;5006844;28;20187;-70
2021/11/15 04:56:58;;;;;;;18.23;12.40;;;9.50;99.90;;;;;;5007867;28;20484;-70
2021/11/15 04:59:24;;;;;;;17.73;12.83;;;9.50;99.90;;;;;;5016364;28;20261;-69
2021/11/15 05:01:50;;;;;;;17.50;13.13;;;9.40;99.90;;;;;;5009937;28;20203;-70
2021/11/15 05:04:16;;;;;;;18.23;12.50;;;9.40;99.90;;;;;;5024003;28;20337;-69
2021/11/15 05:06:41;;;;;;;22.00;13.33;;;9.40;99.90;;;;;;5007176;28;20203;-70
2021/11/15 05:09:07;;;;;;;18.50;12.73;;;9.40;99.90;;;;;;5010536;28;20675;-70
2021/11/15 05:11:32;;;;;;;19.80;13.40;;;9.50;99.90;;;;;;5014339;28;20210;-70
2021/11/15 05:13:58;;;;;;;17.13;11.90;;;9.50;99.90;;;;;;5025833;28;20237;-77
2021/11/15 05:16:23;;;;;;;17.13;12.13;;;9.40;99.90;;;;;;5030921;28;20205;-70
2021/11/15 05:18:49;;;;;;;21.97;13.57;;;9.40;99.90;;;;;;5020357;28;20231;-70
2021/11/15 05:21:15;;;;;;;16.73;12.17;;;9.40;99.90;;;;;;5009860;28;20204;-70
2021/11/15 05:23:41;;;;;;;18.80;13.43;;;9.40;99.90;;;;;;5011733;28;20223;-71
2021/11/15 05:26:08;;;;;;;18.23;13.57;;;9.30;99.90;;;;;;5012140;28;20206;-70
2021/11/15 05:28:33;;;;;;;18.90;12.70;;;9.40;99.90;;;;;;5006379;28;20821;-70
2021/11/15 05:30:59;;;;;;;19.57;13.80;;;9.30;99.90;;;;;;5013573;28;20457;-70
2021/11/15 05:33:24;;;;;;;22.00;13.97;;;9.30;99.90;;;;;;5009552;28;20222;-71
2021/11/15 05:35:50;;;;;;;23.27;13.50;;;9.40;99.90;;;;;;4994679;28;20214;-70
2021/11/15 05:38:16;;;;;;;21.53;14.40;;;9.30;99.90;;;;;;4992382;28;20220;-70
2021/11/15 05:40:41;;;;;;;23.17;14.20;;;9.30;99.90;;;;;;4993793;28;20668;-70
2021/11/15 05:43:07;;;;;;;23.23;16.80;;;9.30;99.90;;;;;;4999928;28;20435;-71
2021/11/15 05:45:33;;;;;;;23.77;15.10;;;9.20;99.90;;;;;;5015080;28;20208;-70
2021/11/15 05:47:59;;;;;;;22.83;14.70;;;9.00;99.90;;;;;;5016911;28;20210;-71
2021/11/15 05:50:26;;;;;;;24.07;15.73;;;8.90;99.90;;;;;;5017577;28;20588;-70
2021/11/15 05:52:52;;;;;;;24.97;16.17;;;8.80;99.90;;;;;;5016937;28;20172;-70
2021/11/15 05:55:21;;;;;;;25.93;14.40;;;8.70;99.90;;;;;;5015044;28;20452;-70
2021/11/15 05:57:47;;;;;;;24.10;14.90;;;8.70;99.90;;;;;;5017240;28;20658;-69
2021/11/15 06:00:18;;;;;;;27.33;15.20;;;8.70;99.90;;;;;;5016551;28;20496;-69
2021/11/15 06:02:44;;;;;;;24.90;15.20;;;8.70;99.90;;;;;;5015679;28;20457;-70
2021/11/15 06:05:11;;;;;;;27.03;16.03;;;8.80;99.90;;;;;;5013695;28;20926;-69
2021/11/15 06:07:36;;;;;;;24.80;15.27;;;8.90;99.90;;;;;;5016122;28;20418;-70
2021/11/15 06:10:05;;;;;;;21.10;14.87;;;8.90;99.90;;;;;;5016934;28;20434;-71
2021/11/15 06:12:31;;;;;;;23.97;16.30;;;9.00;99.90;;;;;;5017992;28;20164;-69
2021/11/15 06:14:57;;;;;;;27.47;15.23;;;8.90;99.90;;;;;;5015240;28;20415;-68
2021/11/15 06:17:22;;;;;;;26.20;16.93;;;8.90;99.90;;;;;;5017348;28;20178;-68
2021/11/15 06:19:48;;;;;;;26.70;16.30;;;8.90;99.90;;;;;;5017569;28;20219;-70
2021/11/15 06:22:13;;;;;;;27.27;16.97;;;8.90;99.90;;;;;;5017199;28;20172;-69
2021/11/15 06:24:41;;;;;;;25.40;15.80;;;8.90;99.90;;;;;;5017053;28;20171;-69
2021/11/15 06:27:07;;;;;;;26.20;16.17;;;8.80;99.90;;;;;;5015398;28;20186;-69
2021/11/15 06:29:33;;;;;;;24.20;15.70;;;8.80;99.90;;;;;;5017315;28;20439;-68
2021/11/15 06:31:59;;;;;;;31.23;18.17;;;8.90;99.90;;;;;;5017666;28;20513;-69
2021/11/15 06:34:24;;;;;;;29.47;16.40;;;8.90;99.90;;;;;;5017907;28;20596;-71
2021/11/15 06:36:50;;;;;;;27.00;16.77;;;8.90;99.90;;;;;;5016333;28;20178;-69
2021/11/15 06:39:15;;;;;;;24.30;17.07;;;8.90;99.90;;;;;;5015758;28;20203;-69
2021/11/15 06:41:42;;;;;;;30.33;17.83;;;8.90;99.90;;;;;;5014736;28;20187;-70
2021/11/15 06:44:08;;;;;;;26.97;16.40;;;8.90;99.90;;;;;;5017124;28;20164;-70
2021/11/15 06:46:34;;;;;;;23.30;16.23;;;9.00;99.90;;;;;;5015218;28;20411;-71
2021/11/15 06:49:00;;;;;;;30.00;17.60;;;9.00;99.90;;;;;;5014747;28;20906;-70
2021/11/15 06:51:28;;;;;;;29.20;17.60;;;9.00;99.90;;;;;;5016499;28;20291;-70
2021/11/15 06:53:53;;;;;;;27.53;17.77;;;9.00;99.90;;;;;;5014040;28;20182;-70
2021/11/15 06:56:19;;;;;;;28.00;17.80;;;8.90;99.90;;;;;;5015460;28;20912;-70
2021/11/15 06:58:44;;;;;;;28.93;18.23;;;8.80;99.90;;;;;;5016966;28;20211;-70
2021/11/15 07:01:10;;;;;;;28.43;17.00;;;8.80;99.90;;;;;;5015756;28;20214;-71
2021/11/15 07:03:36;;;;;;;27.07;16.67;;;8.90;99.90;;;;;;5015140;28;20165;-71
2021/11/15 07:06:01;;;;;;;28.17;17.13;;;9.00;99.90;;;;;;5016689;28;20201;-70
2021/11/15 07:08:28;;;;;;;31.97;18.37;;;9.00;99.90;;;;;;5016660;28;20239;-71
2021/11/15 07:10:54;;;;;;;29.60;17.30;;;8.90;99.90;;;;;;5015676;28;20206;-71
2021/11/15 07:13:20;;;;;;;25.80;17.30;;;8.80;99.90;;;;;;5014563;28;20574;-70
2021/11/15 07:15:48;;;;;;;28.17;16.53;;;8.80;99.90;;;;;;5015992;28;20463;-71
2021/11/15 07:18:14;;;;;;;28.03;16.07;;;8.90;99.90;;;;;;5014488;28;20828;-70
2021/11/15 07:20:40;;;;;;;26.30;16.70;;;8.90;99.90;;;;;;5015055;28;20525;-70
2021/11/15 07:23:05;;;;;;;28.43;18.53;;;9.00;99.90;;;;;;5017023;28;20820;-70
2021/11/15 07:25:31;;;;;;;27.57;17.87;;;9.00;99.90;;;;;;5014797;28;20185;-71
2021/11/15 07:27:57;;;;;;;22.50;15.80;;;8.90;99.90;;;;;;5017259;28;20265;-70
2021/11/15 07:30:24;;;;;;;28.07;16.67;;;8.80;99.90;;;;;;5015209;28;20258;-70
2021/11/15 07:32:50;;;;;;;26.37;16.17;;;8.80;99.90;;;;;;5016001;28;20195;-70
2021/11/15 07:35:17;;;;;;;24.80;16.67;;;8.80;99.90;;;;;;5014860;28;20423;-70
2021/11/15 07:37:43;;;;;;;30.23;18.40;;;8.90;99.90;;;;;;5016774;28;20426;-70
2021/11/15 07:40:11;;;;;;;28.37;17.87;;;8.90;99.90;;;;;;5016478;28;20453;-70
2021/11/15 07:42:37;;;;;;;24.23;15.97;;;8.80;99.90;;;;;;5015894;28;21001;-69
2021/11/15 07:45:04;;;;;;;25.85;18.30;;;8.60;99.90;;;;;;5012347;28;20453;-70
2021/11/15 07:47:30;;;;;;;24.47;16.10;;;8.50;99.90;;;;;;5015869;28;20182;-70
2021/11/15 07:49:56;;;;;;;27.00;16.70;;;8.50;99.90;;;;;;5016021;28;20443;-69
2021/11/15 07:52:22;;;;;;;23.60;15.90;;;8.50;99.90;;;;;;5015669;28;20215;-70
2021/11/15 07:54:49;;;;;;;25.10;15.60;;;8.40;99.90;;;;;;5016741;28;20179;-71
2021/11/15 07:57:15;;;;;;;25.37;16.13;;;8.50;99.90;;;;;;5015268;28;20426;-71
2021/11/15 07:59:42;;;;;;;25.63;14.93;;;8.50;99.90;;;;;;5016698;28;20466;-69
2021/11/15 08:02:08;;;;;;;22.97;15.43;;;8.40;99.90;;;;;;5015654;28;20505;-70
2021/11/15 08:04:34;;;;;;;25.10;15.90;;;8.40;99.90;;;;;;5015666;28;20417;-70
2021/11/15 08:07:00;;;;;;;20.63;14.43;;;8.50;99.90;;;;;;5013824;28;20434;-69
2021/11/15 08:09:26;;;;;;;22.17;15.27;;;8.50;99.90;;;;;;5015738;28;20192;-70
2021/11/15 08:11:53;;;;;;;20.93;14.63;;;8.40;99.90;;;;;;5016091;28;20899;-69
2021/11/15 08:14:19;;;;;;;19.00;12.57;;;8.50;99.90;;;;;;5016525;28;20728;-70
2021/11/15 08:16:47;;;;;;;17.83;12.20;;;8.50;99.90;;;;;;5016455;28;20416;-71
2021/11/15 08:19:14;;;;;;;19.70;12.87;;;8.70;99.90;;;;;;5015111;28;20207;-70
2021/11/15 08:21:40;;;;;;;22.30;13.00;;;8.70;99.90;;;;;;5016358;28;20410;-70
2021/11/15 08:24:18;;;;;;;20.63;12.70;;;8.80;99.90;;;;;;5016819;28;20404;-70
2021/11/15 08:26:46;;;;;;;18.60;12.40;;;8.90;99.90;;;;;;5016592;28;20413;-69
2021/11/15 08:29:14;;;;;;;21.07;12.93;;;9.00;99.90;;;;;;5014686;28;20774;-69
2021/11/15 08:38:55;;;;;;;19.63;13.47;;;9.20;99.90;;;;;;5014133;28;20457;-71
2021/11/15 08:41:31;;;;;;;23.30;15.37;;;9.10;99.90;;;;;;5015516;28;20463;-71
2021/11/15 08:43:58;;;;;;;25.20;13.50;;;9.10;99.90;;;;;;5000577;28;20408;-71
2021/11/15 08:46:27;;;;;;;24.53;15.60;;;9.00;99.90;;;;;;4998291;28;20419;-70
2021/11/15 08:48:53;;;;;;;23.80;14.00;;;8.90;99.90;;;;;;4995441;28;20411;-71
2021/11/15 08:51:20;;;;;;;22.30;14.80;;;8.90;99.90;;;;;;4995821;28;20427;-70
2021/11/15 08:53:46;;;;;;;23.93;13.23;;;8.90;99.90;;;;;;4996088;28;20530;-70
2021/11/15 08:56:12;;;;;;;20.87;14.17;;;9.00;99.90;;;;;;4994953;28;20446;-71
2021/11/15 08:58:38;;;;;;;20.33;13.90;;;9.00;99.90;;;;;;4996657;28;20542;-70
2021/11/15 09:01:06;;;;;;;18.43;13.53;;;9.10;99.90;;;;;;4995794;28;20204;-70
2021/11/15 09:03:32;;;;;;;20.53;13.43;;;9.10;99.90;;;;;;4995559;28;20519;-70
2021/11/15 09:05:57;;;;;;;20.03;11.80;;;8.90;99.90;;;;;;4994604;28;20403;-71
2021/11/15 09:08:23;;;;;;;24.07;14.00;;;8.80;99.90;;;;;;4995242;28;20408;-70
2021/11/15 09:10:50;;;;;;;18.87;12.10;;;8.90;99.90;;;;;;4995224;28;20673;-71
2021/11/15 09:13:16;;;;;;;18.87;12.30;;;9.00;99.90;;;;;;5006664;28;20182;-70
2021/11/15 09:15:41;;;;;;;16.97;12.23;;;9.00;99.90;;;;;;5014336;28;20790;-70
2021/11/15 09:18:07;;;;;;;19.53;12.57;;;9.00;99.90;;;;;;5017082;28;20207;-69
2021/11/15 09:20:33;;;;;;;22.43;13.30;;;8.90;99.90;;;;;;5018706;28;20194;-69
2021/11/15 09:23:00;;;;;;;21.90;13.00;;;8.90;99.90;;;;;;5018027;28;20448;-69
2021/11/15 09:25:25;;;;;;;21.90;13.77;;;8.90;99.90;;;;;;5018249;28;20171;-69
2021/11/15 09:27:51;;;;;;;21.40;13.67;;;8.70;99.90;;;;;;5013098;28;20932;-71
2021/11/15 09:30:17;;;;;;;19.13;13.10;;;8.80;99.90;;;;;;4999217;28;20195;-70
2021/11/15 09:32:44;;;;;;;20.87;12.00;;;8.90;99.90;;;;;;4999575;28;21189;-70
2021/11/15 09:35:10;;;;;;;17.93;12.77;;;8.90;99.90;;;;;;4998908;28;20646;-69
2021/11/15 09:37:36;;;;;;;19.40;13.30;;;8.80;99.90;;;;;;4999112;28;20506;-70
2021/11/15 09:40:04;;;;;;;22.53;12.07;;;8.60;99.90;;;;;;4998860;28;20460;-69
2021/11/15 09:42:30;;;;;;;22.13;12.93;;;8.70;99.90;;;;;;4998161;28;20408;-70
2021/11/15 09:44:56;;;;;;;21.70;14.20;;;8.70;99.90;;;;;;5017424;28;20842;-70
2021/11/15 09:47:21;;;;;;;21.90;12.63;;;8.50;99.90;;;;;;5018781;28;20176;-70
2021/11/15 09:49:47;;;;;;;21.57;14.33;;;8.50;99.90;;;;;;5017556;28;20195;-69
2021/11/15 09:52:13;;;;;;;27.03;13.57;;;8.60;99.90;;;;;;4999250;28;20624;-71
2021/11/15 09:54:39;;;;;;;19.90;12.57;;;8.60;99.90;;;;;;4999199;28;20187;-69
2021/11/15 09:57:12;;;;;;;21.83;13.70;;;8.60;99.90;;;;;;4996432;28;20458;-71
2021/11/15 09:59:37;;;;;;;22.57;13.10;;;8.60;99.90;;;;;;4998902;28;20291;-71
2021/11/15 10:02:03;;;;;;;19.07;12.43;;;8.50;99.90;;;;;;4997811;28;20434;-69
2021/11/15 10:04:29;;;;;;;20.50;11.97;;;8.60;99.90;;;;;;4998047;28;20164;-69
2021/11/15 10:06:57;;;;;;;19.37;12.10;;;8.70;99.90;;;;;;4998859;28;20833;-70
2021/11/15 10:09:31;;;;;;;25.00;13.67;;;8.70;99.90;;;;;;4999047;28;20256;-70
2021/11/15 10:11:59;;;;;;;18.63;11.77;;;8.70;99.90;;;;;;4999140;28;20497;-71
2021/11/15 10:14:25;;;;;;;20.37;12.03;;;8.80;99.90;;;;;;5006378;28;20430;-71
2021/11/15 10:16:53;;;;;;;15.50;12.23;;;8.90;99.90;;;;;;5017471;28;20412;-71
2021/11/15 10:19:22;;;;;;;19.80;13.03;;;8.80;99.90;;;;;;5018513;28;20564;-70
2021/11/15 10:21:50;;;;;;;15.57;10.83;;;8.80;99.90;;;;;;5019209;28;20414;-70
2021/11/15 10:24:35;;;;;;;16.07;11.90;;;8.70;99.90;;;;;;5018628;28;20953;-71
2021/11/15 10:27:07;;;;;;;17.40;11.27;;;8.70;99.90;;;;;;5018085;28;20429;-71
2021/11/15 10:29:36;;;;;;;18.13;11.57;;;8.80;99.90;;;;;;5018353;28;20426;-70
2021/11/15 10:32:06;;;;;;;15.93;11.20;;;8.90;99.90;;;;;;5008532;28;20455;-70
2021/11/15 10:34:57;;;;;;;12.97;10.87;;;8.90;99.90;;;;;;4998575;28;20411;-69
2021/11/15 10:37:33;;;;;;;14.93;10.37;;;9.00;99.90;;;;;;4999248;28;20490;-70
2021/11/15 10:40:06;;;;;;;12.50;9.80;;;9.10;99.90;;;;;;5022360;23;20585;-69
2021/11/15 10:42:46;;;;;;;12.13;7.80;;;9.10;99.90;;;;;;5001572;28;20427;-69
2021/11/15 10:45:12;;;;;;;14.77;8.80;;;9.10;99.90;;;;;;5013979;28;20468;-70
2021/11/15 10:47:42;;;;;;;11.73;8.20;;;9.20;99.90;;;;;;5017761;28;20399;-70
2021/11/15 10:50:21;;;;;;;12.20;8.23;;;9.20;99.90;;;;;;5017290;28;20179;-68
2021/11/15 10:52:55;;;;;;;11.17;7.13;;;9.20;99.90;;;;;;5015218;28;20395;-69
2021/11/15 10:55:21;;;;;;;14.10;8.93;;;8.90;99.90;;;;;;5014434;28;20475;-69
2021/11/15 10:57:48;;;;;;;11.30;7.47;;;8.90;99.90;;;;;;5012595;28;20402;-69
2021/11/15 11:00:18;;;;;;;9.23;7.10;;;8.90;99.90;;;;;;5013870;28;20214;-69
2021/11/15 11:02:52;;;;;;;8.90;7.50;;;8.80;99.90;;;;;;5013739;28;20449;-69
2021/11/15 11:05:24;;;;;;;13.10;8.00;;;8.70;99.90;;;;;;5013981;28;20407;-69
2021/11/15 11:08:07;;;;;;;9.50;7.10;;;8.70;99.90;;;;;;5013790;28;20430;-69
2021/11/15 11:10:41;;;;;;;11.00;7.70;;;8.70;99.90;;;;;;5013797;28;20431;-69
2021/11/15 11:13:07;;;;;;;8.60;6.93;;;8.70;99.90;;;;;;5013769;28;20392;-69
2021/11/15 11:15:39;;;;;;;12.63;8.60;;;8.80;99.90;;;;;;4994410;28;20511;-68
2021/11/15 11:18:18;;;;;;;8.60;7.53;;;8.80;99.90;;;;;;5013614;28;20447;-69
2021/11/15 11:21:26;;;;;;;12.03;8.17;;;8.90;99.90;;;;;;5013814;28;20484;-69
2021/11/15 11:26:35;;;;;;;12.07;7.43;;;9.10;99.90;;;;;;5013723;28;20469;-69
2021/11/15 11:29:08;;;;;;;9.23;7.00;;;8.90;99.90;;;;;;5014369;28;20450;-68
2021/11/15 11:31:36;;;;;;;10.77;7.43;;;9.00;99.90;;;;;;5012409;28;20426;-69
2021/11/15 11:34:02;;;;;;;10.23;7.70;;;9.00;99.90;;;;;;5013574;28;20430;-68
2021/11/15 11:36:28;;;;;;;8.90;7.37;;;9.00;99.90;;;;;;5013022;28;20438;-70
2021/11/15 11:38:56;;;;;;;10.10;7.57;;;9.10;99.90;;;;;;5013663;28;20446;-69
2021/11/15 11:41:22;;;;;;;11.87;7.80;;;9.10;99.90;;;;;;5012621;28;20446;-70
2021/11/15 11:43:49;;;;;;;11.77;9.40;;;9.20;99.90;;;;;;5013311;28;20412;-70
2021/11/15 11:46:19;;;;;;;8.90;7.10;;;9.20;99.90;;;;;;5015690;28;20754;-69
2021/11/15 11:48:48;;;;;;;10.10;7.57;;;9.00;99.90;;;;;;5013621;28;20411;-69
2021/11/15 11:51:14;;;;;;;8.33;6.63;;;8.90;99.90;;;;;;5009995;28;20446;-69
2021/11/15 11:53:40;;;;;;;10.83;8.10;;;8.90;99.90;;;;;;5014037;28;20411;-69
2021/11/15 11:56:21;;;;;;;11.00;8.00;;;8.90;99.90;;;;;;5013283;28;20407;-69
2021/11/15 11:58:49;;;;;;;10.80;7.57;;;8.90;99.90;;;;;;5012920;28;20525;-69
2021/11/15 12:01:21;;;;;;;8.33;6.93;;;9.00;99.90;;;;;;5012779;28;20441;-69
2021/11/15 12:04:11;;;;;;;9.40;7.10;;;9.10;99.90;;;;;;5012872;28;20407;-69
2021/11/15 12:06:38;;;;;;;10.47;7.83;;;9.10;99.90;;;;;;5003000;28;20435;-69
2021/11/15 12:09:04;;;;;;;11.57;8.63;;;9.20;99.90;;;;;;4996753;28;20470;-69
2021/11/15 12:11:40;;;;;;;8.63;7.20;;;9.30;99.90;;;;;;4993171;28;20454;-69
2021/11/15 12:14:10;;;;;;;7.60;6.20;;;9.40;99.90;;;;;;4993363;28;20452;-69
2021/11/15 12:16:56;;;;;;;10.43;7.27;;;9.40;99.90;;;;;;4993158;28;20483;-69
2021/11/15 12:19:42;;;;;;;8.80;6.80;;;9.40;99.90;;;;;;4993438;28;20459;-69
2021/11/15 12:22:15;;;;;;;8.63;6.30;;;9.50;99.90;;;;;;5010786;28;20472;-69
2021/11/15 12:25:08;;;;;;;14.10;7.73;;;9.50;99.90;;;;;;5026320;28;20417;-68
2021/11/15 12:27:49;;;;;;;10.30;7.47;;;9.40;99.90;;;;;;5008898;28;20811;-67
2021/11/15 12:30:19;;;;;;;8.13;6.60;;;9.50;99.90;;;;;;5024543;28;20428;-69
2021/11/15 12:33:07;;;;;;;10.20;7.25;;;9.50;99.90;;;;;;5027589;28;20402;-69
2021/11/15 12:35:55;;;;;;;9.93;6.27;;;9.50;99.90;;;;;;5026941;28;20675;-69
2021/11/15 12:38:36;;;;;;;10.60;6.40;;;9.50;99.90;;;;;;5022994;28;20516;-69
2021/11/15 12:41:23;;;;;;;8.30;5.97;;;9.50;99.90;;;;;;4998750;28;20440;-69
2021/11/15 12:44:09;;;;;;;8.77;7.00;;;9.50;99.90;;;;;;4984838;28;20504;-69
2021/11/15 12:46:49;;;;;;;9.90;6.90;;;9.60;99.90;;;;;;4994371;28;20981;-69
2021/11/15 12:49:33;;;;;;;12.23;7.67;;;9.60;99.90;;;;;;4994811;28;20492;-68
2021/11/15 12:52:11;;;;;;;12.20;7.47;;;9.60;99.90;;;;;;4996983;28;20417;-69